sensor_id;sensor_type;location;lat;lon;timestamp;pressure;altitude;pressure_sealevel;temperature;humidity
9249;BME280;4660;41.768;26.198;2023-05-25T00:01:23;100722.47;;;15.42;100.00
9249;BME280;4660;41.768;26.198;2023-05-25T00:03:51;100732.47;;;15.42;100.00
9249;BME280;4660;41.768;26.198;2023-05-25T00:06:20;100722.69;;;15.17;100.00
9249;BME280;4660;41.768;26.198;2023-05-25T00:08:46;100729.44;;;15.21;100.00
9249;BME280;4660;41.768;26.198;2023-05-25T00:11:13;100724.03;;;15.21;100.00
9249;BME280;4660;41.768;26.198;2023-05-25T00:13:41;100750.97;;;15.22;100.00
9249;BME280;4660;41.768;26.198;2023-05-25T00:16:06;100748.59;;;15.03;100.00
9249;BME280;4660;41.768;26.198;2023-05-25T00:18:32;100746.56;;;14.97;100.00
9249;BME280;4660;41.768;26.198;2023-05-25T00:20:58;100743.69;;;14.90;100.00
9249;BME280;4660;41.768;26.198;2023-05-25T00:23:29;100741.66;;;14.92;100.00
9249;BME280;4660;41.768;26.198;2023-05-25T00:25:55;100742.66;;;14.83;100.00
9249;BME280;4660;41.768;26.198;2023-05-25T00:28:20;100735.38;;;14.92;100.00
9249;BME280;4660;41.768;26.198;2023-05-25T00:30:46;100730.81;;;14.76;100.00
9249;BME280;4660;41.768;26.198;2023-05-25T00:33:11;100723.03;;;14.81;100.00
9249;BME280;4660;41.768;26.198;2023-05-25T00:35:37;100718.78;;;14.62;100.00
9249;BME280;4660;41.768;26.198;2023-05-25T00:38:02;100724.06;;;14.80;100.00
9249;BME280;4660;41.768;26.198;2023-05-25T00:40:28;100735.56;;;14.74;100.00
9249;BME280;4660;41.768;26.198;2023-05-25T00:42:54;100733.50;;;14.68;100.00
9249;BME280;4660;41.768;26.198;2023-05-25T00:45:20;100731.63;;;14.52;100.00
9249;BME280;4660;41.768;26.198;2023-05-25T00:47:50;100704.03;;;14.48;100.00
9249;BME280;4660;41.768;26.198;2023-05-25T00:50:17;100744.34;;;14.59;100.00
9249;BME280;4660;41.768;26.198;2023-05-25T00:52:47;100742.28;;;14.53;100.00
9249;BME280;4660;41.768;26.198;2023-05-25T00:55:15;100711.41;;;14.22;100.00
9249;BME280;4660;41.768;26.198;2023-05-25T00:57:45;100753.91;;;14.38;100.00
9249;BME280;4660;41.768;26.198;2023-05-25T01:00:14;100758.09;;;14.32;100.00
9249;BME280;4660;41.768;26.198;2023-05-25T01:02:41;100769.94;;;14.31;100.00
9249;BME280;4660;41.768;26.198;2023-05-25T01:05:09;100773.75;;;14.46;100.00
9249;BME280;4660;41.768;26.198;2023-05-25T01:07:37;100773.75;;;14.54;100.00
9249;BME280;4660;41.768;26.198;2023-05-25T01:10:08;100763.06;;;14.45;100.00
9249;BME280;4660;41.768;26.198;2023-05-25T01:12:36;100765.28;;;14.49;100.00
9249;BME280;4660;41.768;26.198;2023-05-25T01:15:03;100749.16;;;14.31;100.00
9249;BME280;4660;41.768;26.198;2023-05-25T01:17:29;100767.94;;;14.41;100.00
9249;BME280;4660;41.768;26.198;2023-05-25T01:19:55;100773.09;;;14.52;100.00
9249;BME280;4660;41.768;26.198;2023-05-25T01:22:47;100764.63;;;14.64;100.00
9249;BME280;4660;41.768;26.198;2023-05-25T01:25:26;100765.69;;;14.79;100.00
9249;BME280;4660;41.768;26.198;2023-05-25T01:28:20;100757.41;;;14.72;100.00
9249;BME280;4660;41.768;26.198;2023-05-25T01:30:48;100756.03;;;14.84;100.00
9249;BME280;4660;41.768;26.198;2023-05-25T01:33:17;100764.00;;;14.86;100.00
9249;BME280;4660;41.768;26.198;2023-05-25T01:35:43;100769.25;;;14.79;100.00
9249;BME280;4660;41.768;26.198;2023-05-25T01:38:09;100758.22;;;14.65;100.00
9249;BME280;4660;41.768;26.198;2023-05-25T01:40:35;100744.81;;;14.47;100.00
9249;BME280;4660;41.768;26.198;2023-05-25T01:43:00;100759.91;;;14.57;100.00
9249;BME280;4660;41.768;26.198;2023-05-25T01:45:26;100745.00;;;14.53;100.00
9249;BME280;4660;41.768;26.198;2023-05-25T01:48:01;100758.25;;;14.89;100.00
9249;BME280;4660;41.768;26.198;2023-05-25T01:50:53;100758.25;;;14.81;100.00
9249;BME280;4660;41.768;26.198;2023-05-25T01:53:28;100756.56;;;14.96;100.00
9249;BME280;4660;41.768;26.198;2023-05-25T01:55:58;100768.41;;;15.03;100.00
9249;BME280;4660;41.768;26.198;2023-05-25T01:58:25;100763.66;;;14.89;100.00
9249;BME280;4660;41.768;26.198;2023-05-25T02:00:51;100760.97;;;14.81;100.00
9249;BME280;4660;41.768;26.198;2023-05-25T02:03:17;100763.13;;;14.85;100.00
9249;BME280;4660;41.768;26.198;2023-05-25T02:05:44;100763.00;;;14.79;100.00
9249;BME280;4660;41.768;26.198;2023-05-25T02:08:11;100774.13;;;14.68;100.00
9249;BME280;4660;41.768;26.198;2023-05-25T02:10:36;100779.25;;;14.95;100.00
9249;BME280;4660;41.768;26.198;2023-05-25T02:13:02;100780.94;;;15.04;100.00
9249;BME280;4660;41.768;26.198;2023-05-25T02:15:32;100761.63;;;14.91;100.00
9249;BME280;4660;41.768;26.198;2023-05-25T02:17:58;100762.47;;;14.83;100.00
9249;BME280;4660;41.768;26.198;2023-05-25T02:20:25;100773.13;;;14.85;100.00
9249;BME280;4660;41.768;26.198;2023-05-25T02:22:51;100778.22;;;14.80;100.00
9249;BME280;4660;41.768;26.198;2023-05-25T02:25:16;100780.56;;;14.75;100.00
9249;BME280;4660;41.768;26.198;2023-05-25T02:27:43;100779.06;;;14.72;100.00
9249;BME280;4660;41.768;26.198;2023-05-25T02:30:08;100771.78;;;14.65;100.00
9249;BME280;4660;41.768;26.198;2023-05-25T02:32:34;100769.88;;;14.57;100.00
9249;BME280;4660;41.768;26.198;2023-05-25T02:35:00;100772.56;;;14.57;100.00
9249;BME280;4660;41.768;26.198;2023-05-25T02:37:25;100776.66;;;14.61;100.00
9249;BME280;4660;41.768;26.198;2023-05-25T02:39:51;100784.78;;;14.61;100.00
9249;BME280;4660;41.768;26.198;2023-05-25T02:42:16;100781.72;;;14.56;100.00
9249;BME280;4660;41.768;26.198;2023-05-25T02:44:42;100783.91;;;14.52;100.00
9249;BME280;4660;41.768;26.198;2023-05-25T02:47:15;100783.38;;;14.49;100.00
9249;BME280;4660;41.768;26.198;2023-05-25T02:49:42;100789.28;;;14.44;100.00
9249;BME280;4660;41.768;26.198;2023-05-25T02:52:08;100784.19;;;14.41;100.00
9249;BME280;4660;41.768;26.198;2023-05-25T02:54:34;100771.28;;;14.27;100.00
9249;BME280;4660;41.768;26.198;2023-05-25T02:57:00;100796.25;;;14.47;100.00
9249;BME280;4660;41.768;26.198;2023-05-25T02:59:27;100774.19;;;14.33;100.00
9249;BME280;4660;41.768;26.198;2023-05-25T03:01:53;100793.16;;;14.42;100.00
9249;BME280;4660;41.768;26.198;2023-05-25T03:04:18;100798.72;;;14.32;100.00
9249;BME280;4660;41.768;26.198;2023-05-25T03:06:44;100801.78;;;14.37;100.00
9249;BME280;4660;41.768;26.198;2023-05-25T03:09:10;100802.78;;;14.36;100.00
9249;BME280;4660;41.768;26.198;2023-05-25T03:11:36;100792.25;;;14.25;100.00
9249;BME280;4660;41.768;26.198;2023-05-25T03:14:01;100791.22;;;14.26;100.00
9249;BME280;4660;41.768;26.198;2023-05-25T03:16:27;100814.28;;;14.38;100.00
9249;BME280;4660;41.768;26.198;2023-05-25T03:18:52;100807.53;;;14.42;100.00
9249;BME280;4660;41.768;26.198;2023-05-25T03:21:18;100806.34;;;14.37;100.00
9249;BME280;4660;41.768;26.198;2023-05-25T03:23:43;100806.84;;;14.40;100.00
9249;BME280;4660;41.768;26.198;2023-05-25T03:26:09;100785.16;;;14.24;100.00
9249;BME280;4660;41.768;26.198;2023-05-25T03:28:35;100811.22;;;14.33;100.00
9249;BME280;4660;41.768;26.198;2023-05-25T03:31:00;100809.38;;;14.42;100.00
9249;BME280;4660;41.768;26.198;2023-05-25T03:33:26;100817.31;;;14.35;100.00
9249;BME280;4660;41.768;26.198;2023-05-25T03:35:51;100810.19;;;14.26;100.00
9249;BME280;4660;41.768;26.198;2023-05-25T03:38:17;100818.66;;;14.31;100.00
9249;BME280;4660;41.768;26.198;2023-05-25T03:40:42;100824.69;;;14.17;100.00
9249;BME280;4660;41.768;26.198;2023-05-25T03:43:08;100817.44;;;14.17;100.00
9249;BME280;4660;41.768;26.198;2023-05-25T03:45:33;100812.69;;;14.19;100.00
9249;BME280;4660;41.768;26.198;2023-05-25T03:47:59;100809.91;;;14.03;100.00
9249;BME280;4660;41.768;26.198;2023-05-25T03:50:25;100814.88;;;14.16;100.00
9249;BME280;4660;41.768;26.198;2023-05-25T03:52:50;100808.81;;;14.22;100.00
9249;BME280;4660;41.768;26.198;2023-05-25T03:55:16;100820.03;;;14.35;100.00
9249;BME280;4660;41.768;26.198;2023-05-25T03:57:41;100810.22;;;14.42;100.00
9249;BME280;4660;41.768;26.198;2023-05-25T04:00:07;100819.03;;;14.36;100.00
9249;BME280;4660;41.768;26.198;2023-05-25T04:02:36;100822.00;;;14.17;100.00
9249;BME280;4660;41.768;26.198;2023-05-25T04:05:02;100819.66;;;14.22;100.00
9249;BME280;4660;41.768;26.198;2023-05-25T04:07:27;100824.06;;;14.31;100.00
9249;BME280;4660;41.768;26.198;2023-05-25T04:09:55;100815.53;;;14.10;100.00
9249;BME280;4660;41.768;26.198;2023-05-25T04:12:24;100820.34;;;14.24;100.00
9249;BME280;4660;41.768;26.198;2023-05-25T04:14:49;100812.03;;;14.25;100.00
9249;BME280;4660;41.768;26.198;2023-05-25T04:17:16;100815.97;;;14.31;100.00
9249;BME280;4660;41.768;26.198;2023-05-25T04:19:43;100782.88;;;14.03;100.00
9249;BME280;4660;41.768;26.198;2023-05-25T04:22:11;100824.75;;;14.33;100.00
9249;BME280;4660;41.768;26.198;2023-05-25T04:24:37;100821.28;;;14.49;100.00
9249;BME280;4660;41.768;26.198;2023-05-25T04:27:02;100812.03;;;14.68;100.00
9249;BME280;4660;41.768;26.198;2023-05-25T04:29:28;100830.16;;;14.67;100.00
9249;BME280;4660;41.768;26.198;2023-05-25T04:31:54;100829.59;;;14.55;100.00
9249;BME280;4660;41.768;26.198;2023-05-25T04:34:19;100829.44;;;14.57;100.00
9249;BME280;4660;41.768;26.198;2023-05-25T04:36:46;100818.75;;;14.47;100.00
9249;BME280;4660;41.768;26.198;2023-05-25T04:39:12;100832.41;;;14.88;100.00
9249;BME280;4660;41.768;26.198;2023-05-25T04:41:37;100815.81;;;14.83;100.00
9249;BME280;4660;41.768;26.198;2023-05-25T04:44:03;100831.75;;;15.02;100.00
9249;BME280;4660;41.768;26.198;2023-05-25T04:46:29;100823.31;;;15.22;100.00
9249;BME280;4660;41.768;26.198;2023-05-25T04:48:56;100822.28;;;15.31;100.00
9249;BME280;4660;41.768;26.198;2023-05-25T04:51:22;100806.50;;;15.34;100.00
9249;BME280;4660;41.768;26.198;2023-05-25T04:53:48;100820.06;;;15.59;100.00
9249;BME280;4660;41.768;26.198;2023-05-25T04:56:15;100834.13;;;15.79;100.00
9249;BME280;4660;41.768;26.198;2023-05-25T04:58:41;100838.00;;;15.84;100.00
9249;BME280;4660;41.768;26.198;2023-05-25T05:01:06;100814.63;;;15.75;100.00
9249;BME280;4660;41.768;26.198;2023-05-25T05:03:32;100831.75;;;15.84;100.00
9249;BME280;4660;41.768;26.198;2023-05-25T05:05:58;100818.84;;;15.86;100.00
9249;BME280;4660;41.768;26.198;2023-05-25T05:08:23;100823.16;;;16.19;100.00
9249;BME280;4660;41.768;26.198;2023-05-25T05:10:49;100814.50;;;16.24;100.00
9249;BME280;4660;41.768;26.198;2023-05-25T05:13:15;100839.09;;;16.62;100.00
9249;BME280;4660;41.768;26.198;2023-05-25T05:15:41;100824.78;;;16.76;100.00
9249;BME280;4660;41.768;26.198;2023-05-25T05:18:07;100819.72;;;16.73;100.00
9249;BME280;4660;41.768;26.198;2023-05-25T05:20:33;100831.09;;;16.99;100.00
9249;BME280;4660;41.768;26.198;2023-05-25T05:22:59;100848.38;;;17.06;100.00
9249;BME280;4660;41.768;26.198;2023-05-25T05:25:24;100841.19;;;17.14;100.00
9249;BME280;4660;41.768;26.198;2023-05-25T05:27:50;100843.81;;;17.30;100.00
9249;BME280;4660;41.768;26.198;2023-05-25T05:30:16;100835.69;;;17.45;100.00
9249;BME280;4660;41.768;26.198;2023-05-25T05:32:41;100841.97;;;17.45;100.00
9249;BME280;4660;41.768;26.198;2023-05-25T05:35:07;100823.16;;;17.36;100.00
9249;BME280;4660;41.768;26.198;2023-05-25T05:37:33;100845.69;;;17.67;100.00
9249;BME280;4660;41.768;26.198;2023-05-25T05:39:58;100846.41;;;17.99;100.00
9249;BME280;4660;41.768;26.198;2023-05-25T05:42:24;100852.16;;;18.04;100.00
9249;BME280;4660;41.768;26.198;2023-05-25T05:44:50;100843.63;;;18.22;100.00
9249;BME280;4660;41.768;26.198;2023-05-25T05:47:15;100846.88;;;18.47;100.00
9249;BME280;4660;41.768;26.198;2023-05-25T05:49:41;100834.75;;;18.49;100.00
9249;BME280;4660;41.768;26.198;2023-05-25T05:52:07;100827.31;;;18.58;100.00
9249;BME280;4660;41.768;26.198;2023-05-25T05:54:33;100852.88;;;18.72;100.00
9249;BME280;4660;41.768;26.198;2023-05-25T05:56:59;100861.72;;;18.74;100.00
9249;BME280;4660;41.768;26.198;2023-05-25T05:59:26;100855.59;;;18.72;100.00
9249;BME280;4660;41.768;26.198;2023-05-25T06:01:52;100850.31;;;18.85;100.00
9249;BME280;4660;41.768;26.198;2023-05-25T06:04:18;100847.84;;;18.90;100.00
9249;BME280;4660;41.768;26.198;2023-05-25T06:06:43;100851.44;;;19.12;100.00
9249;BME280;4660;41.768;26.198;2023-05-25T06:09:10;100862.50;;;19.25;100.00
9249;BME280;4660;41.768;26.198;2023-05-25T06:11:36;100847.03;;;19.11;100.00
9249;BME280;4660;41.768;26.198;2023-05-25T06:14:04;100854.19;;;19.33;100.00
9249;BME280;4660;41.768;26.198;2023-05-25T06:16:31;100840.09;;;19.30;100.00
9249;BME280;4660;41.768;26.198;2023-05-25T06:18:56;100830.72;;;19.39;100.00
9249;BME280;4660;41.768;26.198;2023-05-25T06:21:22;100844.09;;;19.34;100.00
9249;BME280;4660;41.768;26.198;2023-05-25T06:23:47;100851.91;;;19.37;100.00
9249;BME280;4660;41.768;26.198;2023-05-25T06:26:16;100858.44;;;19.42;100.00
9249;BME280;4660;41.768;26.198;2023-05-25T06:28:42;100857.72;;;19.55;100.00
9249;BME280;4660;41.768;26.198;2023-05-25T06:31:07;100865.22;;;19.68;100.00
9249;BME280;4660;41.768;26.198;2023-05-25T06:33:33;100854.16;;;19.76;100.00
9249;BME280;4660;41.768;26.198;2023-05-25T06:35:58;100856.09;;;19.82;100.00
9249;BME280;4660;41.768;26.198;2023-05-25T06:38:27;100859.41;;;20.05;100.00
9249;BME280;4660;41.768;26.198;2023-05-25T06:40:54;100860.31;;;20.13;100.00
9249;BME280;4660;41.768;26.198;2023-05-25T06:43:20;100856.53;;;20.14;100.00
9249;BME280;4660;41.768;26.198;2023-05-25T06:45:45;100861.84;;;20.22;100.00
9249;BME280;4660;41.768;26.198;2023-05-25T06:48:11;100862.03;;;20.20;100.00
9249;BME280;4660;41.768;26.198;2023-05-25T06:50:37;100848.56;;;20.19;100.00
9249;BME280;4660;41.768;26.198;2023-05-25T06:53:03;100854.53;;;20.29;100.00
9249;BME280;4660;41.768;26.198;2023-05-25T06:55:29;100855.44;;;20.43;100.00
9249;BME280;4660;41.768;26.198;2023-05-25T06:57:55;100813.38;;;20.37;100.00
9249;BME280;4660;41.768;26.198;2023-05-25T07:00:20;100815.47;;;20.42;100.00
9249;BME280;4660;41.768;26.198;2023-05-25T07:02:46;100853.13;;;20.87;100.00
9249;BME280;4660;41.768;26.198;2023-05-25T07:05:11;100844.78;;;21.09;100.00
9249;BME280;4660;41.768;26.198;2023-05-25T07:07:37;100817.44;;;21.09;100.00
9249;BME280;4660;41.768;26.198;2023-05-25T07:10:04;100849.28;;;21.30;100.00
9249;BME280;4660;41.768;26.198;2023-05-25T07:12:30;100857.06;;;21.46;100.00
9249;BME280;4660;41.768;26.198;2023-05-25T07:14:57;100862.94;;;21.43;100.00
9249;BME280;4660;41.768;26.198;2023-05-25T07:17:23;100852.66;;;21.45;100.00
9249;BME280;4660;41.768;26.198;2023-05-25T07:19:48;100860.44;;;21.48;100.00
9249;BME280;4660;41.768;26.198;2023-05-25T07:22:14;100859.63;;;21.67;100.00
9249;BME280;4660;41.768;26.198;2023-05-25T07:24:44;100862.34;;;21.94;100.00
9249;BME280;4660;41.768;26.198;2023-05-25T07:27:10;100832.63;;;21.91;100.00
9249;BME280;4660;41.768;26.198;2023-05-25T07:29:38;100854.09;;;22.07;100.00
9249;BME280;4660;41.768;26.198;2023-05-25T07:32:05;100818.28;;;22.02;100.00
9249;BME280;4660;41.768;26.198;2023-05-25T07:34:34;100835.97;;;22.13;100.00
9249;BME280;4660;41.768;26.198;2023-05-25T07:37:00;100826.88;;;22.25;100.00
9249;BME280;4660;41.768;26.198;2023-05-25T07:39:25;100805.19;;;22.04;100.00
9249;BME280;4660;41.768;26.198;2023-05-25T07:41:51;100846.91;;;22.33;100.00
9249;BME280;4660;41.768;26.198;2023-05-25T07:44:17;100860.31;;;22.61;100.00
9249;BME280;4660;41.768;26.198;2023-05-25T07:46:43;100827.25;;;22.42;100.00
9249;BME280;4660;41.768;26.198;2023-05-25T07:49:08;100839.88;;;22.50;100.00
9249;BME280;4660;41.768;26.198;2023-05-25T07:51:43;100839.16;;;22.74;100.00
9249;BME280;4660;41.768;26.198;2023-05-25T07:54:30;100859.38;;;22.87;100.00
9249;BME280;4660;41.768;26.198;2023-05-25T07:56:56;100845.00;;;22.91;100.00
9249;BME280;4660;41.768;26.198;2023-05-25T07:59:22;100859.56;;;22.92;100.00
9249;BME280;4660;41.768;26.198;2023-05-25T08:01:48;100839.88;;;23.01;100.00
9249;BME280;4660;41.768;26.198;2023-05-25T08:04:14;100808.94;;;22.88;100.00
9249;BME280;4660;41.768;26.198;2023-05-25T08:06:40;100835.78;;;23.17;100.00
9249;BME280;4660;41.768;26.198;2023-05-25T08:09:06;100820.16;;;23.18;100.00
9249;BME280;4660;41.768;26.198;2023-05-25T08:11:32;100855.44;;;23.46;100.00
9249;BME280;4660;41.768;26.198;2023-05-25T08:13:58;100844.25;;;23.41;100.00
9249;BME280;4660;41.768;26.198;2023-05-25T08:16:24;100846.66;;;23.62;100.00
9249;BME280;4660;41.768;26.198;2023-05-25T08:18:50;100817.59;;;23.48;100.00
9249;BME280;4660;41.768;26.198;2023-05-25T08:21:16;100835.09;;;23.78;100.00
9249;BME280;4660;41.768;26.198;2023-05-25T08:23:42;100840.16;;;23.81;100.00
9249;BME280;4660;41.768;26.198;2023-05-25T08:26:11;100837.13;;;23.89;100.00
9249;BME280;4660;41.768;26.198;2023-05-25T08:28:37;100835.31;;;24.02;100.00
9249;BME280;4660;41.768;26.198;2023-05-25T08:31:03;100820.22;;;23.86;100.00
9249;BME280;4660;41.768;26.198;2023-05-25T08:33:29;100838.44;;;24.05;100.00
9249;BME280;4660;41.768;26.198;2023-05-25T08:35:55;100814.09;;;24.09;100.00
9249;BME280;4660;41.768;26.198;2023-05-25T08:38:21;100837.94;;;24.33;100.00
9249;BME280;4660;41.768;26.198;2023-05-25T08:41:03;100835.53;;;24.43;100.00
9249;BME280;4660;41.768;26.198;2023-05-25T08:43:29;100819.94;;;24.37;100.00
9249;BME280;4660;41.768;26.198;2023-05-25T08:45:58;100831.63;;;24.33;100.00
9249;BME280;4660;41.768;26.198;2023-05-25T08:48:32;100808.81;;;24.26;100.00
9249;BME280;4660;41.768;26.198;2023-05-25T08:51:00;100821.28;;;24.47;100.00
9249;BME280;4660;41.768;26.198;2023-05-25T08:53:28;100824.38;;;24.38;100.00
9249;BME280;4660;41.768;26.198;2023-05-25T08:55:56;100828.69;;;24.64;100.00
9249;BME280;4660;41.768;26.198;2023-05-25T08:58:29;100826.16;;;24.81;100.00
9249;BME280;4660;41.768;26.198;2023-05-25T09:00:59;100831.78;;;25.05;100.00
9249;BME280;4660;41.768;26.198;2023-05-25T09:03:28;100830.19;;;25.39;100.00
9249;BME280;4660;41.768;26.198;2023-05-25T09:05:55;100813.56;;;25.57;100.00
9249;BME280;4660;41.768;26.198;2023-05-25T09:08:21;100812.72;;;25.45;100.00
9249;BME280;4660;41.768;26.198;2023-05-25T09:10:48;100831.97;;;25.33;100.00
9249;BME280;4660;41.768;26.198;2023-05-25T09:13:14;100820.22;;;25.26;100.00
9249;BME280;4660;41.768;26.198;2023-05-25T09:15:40;100821.53;;;25.35;100.00
9249;BME280;4660;41.768;26.198;2023-05-25T09:18:05;100808.91;;;25.69;100.00
9249;BME280;4660;41.768;26.198;2023-05-25T09:20:31;100805.22;;;25.75;100.00
9249;BME280;4660;41.768;26.198;2023-05-25T09:22:57;100795.38;;;25.91;100.00
9249;BME280;4660;41.768;26.198;2023-05-25T09:25:28;100798.16;;;26.03;100.00
9249;BME280;4660;41.768;26.198;2023-05-25T09:27:57;100810.22;;;26.14;100.00
9249;BME280;4660;41.768;26.198;2023-05-25T09:30:25;100800.38;;;26.41;100.00
9249;BME280;4660;41.768;26.198;2023-05-25T09:33:14;100789.19;;;26.36;100.00
9249;BME280;4660;41.768;26.198;2023-05-25T09:35:42;100790.22;;;26.06;100.00
9249;BME280;4660;41.768;26.198;2023-05-25T09:38:08;100788.19;;;25.67;100.00
9249;BME280;4660;41.768;26.198;2023-05-25T09:40:34;100783.81;;;25.24;100.00
9249;BME280;4660;41.768;26.198;2023-05-25T09:43:03;100812.41;;;24.93;100.00
9249;BME280;4660;41.768;26.198;2023-05-25T09:45:30;100823.06;;;24.59;100.00
9249;BME280;4660;41.768;26.198;2023-05-25T09:47:56;100788.66;;;24.13;100.00
9249;BME280;4660;41.768;26.198;2023-05-25T09:50:23;100802.63;;;24.12;100.00
9249;BME280;4660;41.768;26.198;2023-05-25T09:52:48;100822.09;;;24.10;100.00
9249;BME280;4660;41.768;26.198;2023-05-25T09:55:16;100816.63;;;23.67;100.00
9249;BME280;4660;41.768;26.198;2023-05-25T09:57:43;100813.25;;;23.33;100.00
9249;BME280;4660;41.768;26.198;2023-05-25T10:00:09;100809.09;;;22.93;100.00
9249;BME280;4660;41.768;26.198;2023-05-25T10:02:36;100789.94;;;22.41;100.00
9249;BME280;4660;41.768;26.198;2023-05-25T10:05:02;100816.53;;;22.28;100.00
9249;BME280;4660;41.768;26.198;2023-05-25T10:07:29;100815.34;;;22.10;100.00
9249;BME280;4660;41.768;26.198;2023-05-25T10:09:59;100794.03;;;21.92;100.00
9249;BME280;4660;41.768;26.198;2023-05-25T10:12:29;100795.47;;;22.21;100.00
9249;BME280;4660;41.768;26.198;2023-05-25T10:14:57;100788.66;;;22.50;100.00
9249;BME280;4660;41.768;26.198;2023-05-25T10:17:27;100790.44;;;22.63;100.00
9249;BME280;4660;41.768;26.198;2023-05-25T10:19:58;100790.41;;;22.70;100.00
9249;BME280;4660;41.768;26.198;2023-05-25T10:25:43;100786.38;;;23.42;100.00
9249;BME280;4660;41.768;26.198;2023-05-25T10:30:38;100781.47;;;23.51;100.00
9249;BME280;4660;41.768;26.198;2023-05-25T10:33:04;100769.75;;;23.62;100.00
9249;BME280;4660;41.768;26.198;2023-05-25T10:35:30;100762.88;;;23.71;100.00
9249;BME280;4660;41.768;26.198;2023-05-25T10:38:01;100756.13;;;23.92;100.00
9249;BME280;4660;41.768;26.198;2023-05-25T10:40:28;100758.25;;;24.27;100.00
9249;BME280;4660;41.768;26.198;2023-05-25T10:42:54;100763.03;;;24.68;100.00
9249;BME280;4660;41.768;26.198;2023-05-25T10:45:20;100734.25;;;24.82;100.00
9249;BME280;4660;41.768;26.198;2023-05-25T10:47:46;100754.38;;;25.24;100.00
9249;BME280;4660;41.768;26.198;2023-05-25T10:50:21;100740.09;;;25.28;100.00
9249;BME280;4660;41.768;26.198;2023-05-25T10:55:24;100712.56;;;24.74;100.00
9249;BME280;4660;41.768;26.198;2023-05-25T10:58:15;100746.78;;;24.78;100.00
9249;BME280;4660;41.768;26.198;2023-05-25T11:00:42;100732.81;;;24.80;100.00
9249;BME280;4660;41.768;26.198;2023-05-25T11:03:21;100739.25;;;25.04;100.00
9249;BME280;4660;41.768;26.198;2023-05-25T11:05:49;100728.75;;;25.24;100.00
9249;BME280;4660;41.768;26.198;2023-05-25T11:08:15;100730.06;;;25.57;100.00
9249;BME280;4660;41.768;26.198;2023-05-25T11:16:21;100740.19;;;26.15;100.00
9249;BME280;4660;41.768;26.198;2023-05-25T11:18:52;100745.41;;;26.51;100.00
9249;BME280;4660;41.768;26.198;2023-05-25T11:23:54;100736.53;;;27.23;100.00
9249;BME280;4660;41.768;26.198;2023-05-25T11:26:24;100721.13;;;27.44;100.00
9249;BME280;4660;41.768;26.198;2023-05-25T11:28:51;100708.06;;;27.23;100.00
9249;BME280;4660;41.768;26.198;2023-05-25T11:31:30;100728.41;;;27.33;100.00
9249;BME280;4660;41.768;26.198;2023-05-25T11:34:00;100718.63;;;27.09;100.00
9249;BME280;4660;41.768;26.198;2023-05-25T11:36:27;100722.72;;;26.78;100.00
9249;BME280;4660;41.768;26.198;2023-05-25T11:38:55;100723.88;;;26.65;100.00
9249;BME280;4660;41.768;26.198;2023-05-25T11:41:22;100717.22;;;26.49;100.00
9249;BME280;4660;41.768;26.198;2023-05-25T11:43:49;100720.31;;;26.13;100.00
9249;BME280;4660;41.768;26.198;2023-05-25T11:46:19;100720.44;;;26.06;100.00
9249;BME280;4660;41.768;26.198;2023-05-25T11:48:51;100719.53;;;26.00;100.00
9249;BME280;4660;41.768;26.198;2023-05-25T11:51:23;100714.28;;;26.39;100.00
9249;BME280;4660;41.768;26.198;2023-05-25T11:53:52;100710.69;;;26.84;100.00
9249;BME280;4660;41.768;26.198;2023-05-25T11:56:21;100691.94;;;26.86;97.99
9249;BME280;4660;41.768;26.198;2023-05-25T11:58:49;100702.03;;;27.26;99.80
9249;BME280;4660;41.768;26.198;2023-05-25T12:01:22;100684.16;;;27.50;97.94
9249;BME280;4660;41.768;26.198;2023-05-25T12:03:52;100676.34;;;27.81;97.70
9249;BME280;4660;41.768;26.198;2023-05-25T12:06:27;100682.34;;;28.21;95.77
9249;BME280;4660;41.768;26.198;2023-05-25T12:08:54;100696.53;;;29.06;98.99
9249;BME280;4660;41.768;26.198;2023-05-25T12:11:49;100749.25;;;29.11;98.31
9249;BME280;4660;41.768;26.198;2023-05-25T12:14:15;100733.44;;;25.59;100.00
9249;BME280;4660;41.768;26.198;2023-05-25T12:16:41;100708.00;;;24.68;100.00
9249;BME280;4660;41.768;26.198;2023-05-25T12:19:07;100720.00;;;24.25;100.00
9249;BME280;4660;41.768;26.198;2023-05-25T12:21:33;100745.28;;;23.54;100.00
9249;BME280;4660;41.768;26.198;2023-05-25T12:23:59;100767.81;;;23.13;100.00
9249;BME280;4660;41.768;26.198;2023-05-25T12:26:26;100778.31;;;22.91;100.00
9249;BME280;4660;41.768;26.198;2023-05-25T12:29:06;100753.97;;;22.63;100.00
9249;BME280;4660;41.768;26.198;2023-05-25T12:31:36;100757.16;;;22.60;100.00
9249;BME280;4660;41.768;26.198;2023-05-25T12:34:13;100738.03;;;22.46;100.00
9249;BME280;4660;41.768;26.198;2023-05-25T12:36:39;100764.16;;;22.49;100.00
9249;BME280;4660;41.768;26.198;2023-05-25T12:39:07;100749.25;;;22.38;100.00
9249;BME280;4660;41.768;26.198;2023-05-25T12:41:46;100768.25;;;22.33;100.00
9249;BME280;4660;41.768;26.198;2023-05-25T12:44:27;100760.84;;;22.40;100.00
9249;BME280;4660;41.768;26.198;2023-05-25T12:47:07;100743.47;;;22.08;100.00
9249;BME280;4660;41.768;26.198;2023-05-25T12:49:34;100758.88;;;21.96;100.00
9249;BME280;4660;41.768;26.198;2023-05-25T12:52:01;100770.66;;;22.03;100.00
9249;BME280;4660;41.768;26.198;2023-05-25T12:54:44;100787.22;;;22.28;100.00
9249;BME280;4660;41.768;26.198;2023-05-25T12:57:12;100784.91;;;22.32;100.00
9249;BME280;4660;41.768;26.198;2023-05-25T12:59:41;100783.72;;;22.01;100.00
9249;BME280;4660;41.768;26.198;2023-05-25T13:02:07;100756.84;;;21.58;100.00
9249;BME280;4660;41.768;26.198;2023-05-25T13:04:34;100743.75;;;21.67;100.00
9249;BME280;4660;41.768;26.198;2023-05-25T13:07:03;100762.88;;;21.93;100.00
9249;BME280;4660;41.768;26.198;2023-05-25T13:09:32;100736.69;;;22.04;100.00